Alice Springs Airport
YBAS : now visible

Aeroporto :











RITROVATECI SU...

 
LOGIN :

Iscrizione | Disclaimer

   EN    FR    IT 

 









Sommario :    VFR   VFR Marginale   IFR   IFR Intensivo   IFR Molto Intensivo
Visibilità : 
Base nubi : 
>= 8 km
>= 3000ft
5 / 8 km
1000 / 3000 ft
1500m / 5 km
500 / 1000 ft
800 / 1500m
200 / 500 ft
< 800m
< 200 ft
Simboli :   Temporali  Nebbia  Neve Forte  Precipitazioni Forti  Vento > 20 kt






- Altitudine del aeroporto : 1789 ft
- Codice IATA : ASP


YBAS - Alice Springs

ULTIMO METAR :
  • 171800Z AUTO 31005KT 9999 // NCD 24/03 Q1012

METARs OBSOLETI :
  • 171730Z AUTO 31004KT 9999 // NCD 24/03 Q1012 RF00.0/000.0
  • 171700Z AUTO 19001KT 9999 // NCD 24/02 Q1012
  • 171630Z AUTO 17005KT 9999 // NCD 25/02 Q1012 RF00.0/000.0
  • 171600Z AUTO 16005KT 9999 // NCD 25/03 Q1012
  • 171530Z AUTO 15005KT 9999 // NCD 26/02 Q1012 RF00.0/000.0

TAF TAF YBAS
Valido dal 17 a 18 ore il 18 a 18 ore UTC


171710Z 1718/1818 12006KT CAVOK
BECMG 1723/1800 15015KT CAVOK
FM181200 12008KT CAVOK



MetMap, La meteo Aeronautica in un colpo d'occhio ! - Copyright ORBIFLY Dicembre 2007 - Disclaimer

ORBIFLY MET'MAP TEAM :

Programmazione e sviluppo : Alexandra Zaïnal
Concezione : Baudouin d'Aumeries
Aiuto per la programmazione : Marc-Olivier Méhu
Supporto tecnico e logistico : Manuel Goepfert
Aiuto per la traduzione : Arnaldo La Scala

Contatto : metmap@orbifly.com




FONTI E CREDITI :

   NOAA       Earth
Advisory